Aérodrome :
LOGIN :

S'inscrire | Disclaimer

   EN    FR    IT 

 










Légende :    VFR   VFR Marginal   IFR   IFR Intensif   IFR Très Intensif
Visi : 
Plafond : 
>= 8 km
>= 3000ft
5 à 8 km
1000 à 3000 ft
1500m à 5 km
500 à 1000 ft
800 à 1500m
200 à 500 ft
< 800m
< 200 ft
Symboles :   Orages  Brouillard  Fortes neiges  Fortes précipitations  Vent > 20 kt
SIGMETs :   Divers  Orages  Givrage  Turbulence  Onde Orograph.  Cendres Volcan.






- Altitude de l'aérodrome : 26 ft
- Code IATA : BIA


LFKB - Bastia

DERNIER METAR :
  • 272130Z AUTO 23005KT CAVOK 06/05 Q1025 NOSIG

METARs EXPIRÉS :
  • 272100Z AUTO 23005KT CAVOK 06/05 Q1025 NOSIG
  • 272030Z AUTO 24003KT 7000 NSC 06/05 Q1024 NOSIG
  • 272000Z AUTO VRB03KT 8000 NSC 07/06 Q1024 TEMPO BKN010
  • 271930Z AUTO 21003KT CAVOK 07/06 Q1024 TEMPO 12010KT BKN010
  • 271900Z AUTO 21003KT 8000 NSC 07/06 Q1024 TEMPO BKN010 BECMG 12010KT

TAF TAF LFKB
Valide du 27 à 21h jusqu'au 28 à 21h UTC


272000Z 2721/2821 24005KT CAVOK TX16/2812Z TN05/2805Z
BECMG 2809/2811 04010KT
BECMG 2818/2821 24006KT
ATIS : +33 4 95 59 19 40



MET'MAP, la Météo Aéronautique d'un coup d'oeil ! - Copyright ORBIFLY Décembre 2007 - Disclaimer

ORBIFLY MET'MAP TEAM :

Programmation & Développement : Alexandra Zaïnal
Sur une idée originale de : Baudouin d'Aumeries
Assistance à la programmation : Marc-Olivier Méhu
Soutien technique & logistique : Manuel Goepfert

Contact : metmap@orbifly.com




SOURCES & CREDITS :

   NOAA